Time;durP1;ratioP1;P1;durP2;ratioP2;P2;SDS_P1;SDS_P2;PMS_P1;PMS_P2;Temp;Humidity;BMP_temperature;BMP_pressure;BME280_temperature;BME280_humidity;BME280_pressure;Samples;Min_cycle;Max_cycle;Signal;HPM_P1;HPM_P2
2023/08/26 00:00:16;;;;;;;22.20;17.83;;;;;;;17.46;100.00;100734.16;5068352;28;20028;-66
2023/08/26 00:02:45;;;;;;;23.35;18.35;;;;;;;17.46;100.00;100728.84;5067861;28;20055;-66
2023/08/26 00:05:13;;;;;;;19.80;17.02;;;;;;;17.41;100.00;100725.81;5069259;28;20587;-65
2023/08/26 00:07:41;;;;;;;21.38;16.15;;;;;;;17.34;100.00;100720.25;5071624;28;20076;-66
2023/08/26 00:10:09;;;;;;;22.17;16.50;;;;;;;17.33;100.00;100717.72;5071393;28;20040;-66
2023/08/26 00:12:37;;;;;;;21.90;14.43;;;;;;;17.29;100.00;100719.84;5068446;28;20040;-66
2023/08/26 00:15:07;;;;;;;19.55;14.73;;;;;;;17.31;100.00;100727.66;5068674;28;20046;-66
2023/08/26 00:17:36;;;;;;;19.00;14.38;;;;;;;17.21;100.00;100730.38;5070199;28;20055;-66
2023/08/26 00:20:08;;;;;;;20.67;14.02;;;;;;;17.16;100.00;100727.31;5068203;28;20036;-66
2023/08/26 00:22:36;;;;;;;18.70;12.88;;;;;;;17.21;100.00;100730.38;5065497;28;20048;-66
2023/08/26 00:25:05;;;;;;;14.85;12.32;;;;;;;17.12;100.00;100725.94;5068559;28;20059;-65
2023/08/26 00:27:33;;;;;;;15.95;12.13;;;;;;;17.07;100.00;100723.72;5068607;28;20044;-67
2023/08/26 00:30:01;;;;;;;18.27;11.68;;;;;;;17.08;100.00;100733.34;5071109;28;20391;-66
2023/08/26 00:32:30;;;;;;;20.52;13.27;;;;;;;17.09;100.00;100736.84;5071346;28;20056;-66
2023/08/26 00:34:59;;;;;;;16.92;12.85;;;;;;;17.15;100.00;100736.25;5071252;28;20061;-67
2023/08/26 00:37:31;;;;;;;15.43;11.40;;;;;;;17.24;100.00;100730.91;5082856;28;20045;-67
2023/08/26 00:39:59;;;;;;;15.82;12.20;;;;;;;17.21;100.00;100730.38;5068161;28;20476;-66
2023/08/26 00:42:27;;;;;;;16.23;12.00;;;;;;;17.20;100.00;100726.03;5067519;28;20052;-66
2023/08/26 00:44:55;;;;;;;15.45;11.98;;;;;;;17.21;100.00;100723.22;5068296;28;20052;-66
2023/08/26 00:47:24;;;;;;;16.48;12.10;;;;;;;17.19;100.00;100719.03;5067580;28;20141;-66
2023/08/26 00:49:52;;;;;;;18.40;12.52;;;;;;;17.11;100.00;100714.47;5070274;28;20425;-66
2023/08/26 00:52:22;;;;;;;16.13;12.50;;;;;;;17.12;100.00;100715.31;5066703;28;20064;-67
2023/08/26 00:54:52;;;;;;;16.42;11.43;;;;;;;17.10;100.00;100711.94;5067723;28;20059;-65
2023/08/26 00:57:21;;;;;;;15.43;11.05;;;;;;;17.09;100.00;100718.25;5067765;28;20120;-65
2023/08/26 00:59:49;;;;;;;15.48;11.93;;;;;;;17.04;100.00;100718.66;5067780;28;20040;-66
2023/08/26 01:02:18;;;;;;;16.33;11.00;;;;;;;16.95;100.00;100719.56;5068434;28;20056;-66
2023/08/26 01:04:46;;;;;;;16.48;11.02;;;;;;;16.99;100.00;100727.09;5073779;28;20056;-66
2023/08/26 01:07:14;;;;;;;14.38;11.70;;;;;;;16.98;100.00;100725.41;5070458;28;20415;-66
2023/08/26 01:09:44;;;;;;;18.63;11.82;;;;;;;17.00;100.00;100718.16;5072148;28;20056;-66
2023/08/26 01:12:22;;;;;;;19.67;11.90;;;;;;;16.99;100.00;100719.13;5072917;28;20053;-65
2023/08/26 01:14:59;;;;;;;16.63;12.32;;;;;;;16.97;100.00;100718.41;5071646;28;20048;-66
2023/08/26 01:17:31;;;;;;;15.68;10.77;;;;;;;16.96;100.00;100722.06;5070751;28;20041;-66
2023/08/26 01:20:00;;;;;;;17.13;12.05;;;;;;;16.90;100.00;100722.63;5070850;28;20438;-66
2023/08/26 01:22:30;;;;;;;16.15;12.40;;;;;;;16.95;100.00;100723.03;5070009;28;20044;-66
2023/08/26 01:25:00;;;;;;;17.67;11.70;;;;;;;16.94;100.00;100731.16;5072104;28;20054;-66
2023/08/26 01:27:28;;;;;;;16.40;11.55;;;;;;;16.95;100.00;100731.00;5073857;28;20060;-66
2023/08/26 01:29:56;;;;;;;19.85;12.20;;;;;;;16.92;100.00;100715.38;5073701;28;20056;-57
2023/08/26 01:32:33;;;;;;;16.80;11.00;;;;;;;16.86;100.00;100721.22;5073872;28;20102;-56
2023/08/26 01:35:06;;;;;;;15.32;10.68;;;;;;;16.91;100.00;100713.69;5073297;28;20048;-56
2023/08/26 01:37:37;;;;;;;18.42;11.07;;;;;;;16.85;100.00;100717.75;5073677;28;20049;-56
2023/08/26 01:40:10;;;;;;;14.23;10.43;;;;;;;16.86;100.00;100723.88;5070841;28;20029;-54
2023/08/26 01:42:42;;;;;;;15.48;10.38;;;;;;;16.89;100.00;100711.19;5070501;28;20059;-55
2023/08/26 01:45:11;;;;;;;14.48;8.93;;;;;;;16.86;100.00;100718.56;5073968;28;20128;-55
2023/08/26 01:47:40;;;;;;;14.52;8.80;;;;;;;16.80;100.00;100727.13;5073669;28;20055;-55
2023/08/26 01:50:09;;;;;;;13.20;9.02;;;;;;;16.66;100.00;100723.94;5073847;28;20106;-55
2023/08/26 01:52:37;;;;;;;13.10;8.80;;;;;;;16.63;100.00;100726.03;5073983;28;20048;-55
2023/08/26 01:55:07;;;;;;;12.48;9.52;;;;;;;16.62;100.00;100724.34;5073513;28;20062;-56
2023/08/26 01:57:35;;;;;;;17.50;10.68;;;;;;;16.56;100.00;100725.75;5073445;28;20049;-54
2023/08/26 02:00:05;;;;;;;18.10;11.65;;;;;;;16.57;100.00;100724.78;5073315;28;20739;-55
2023/08/26 02:02:33;;;;;;;16.83;12.35;;;;;;;16.48;100.00;100729.09;5073530;28;20131;-54
2023/08/26 02:05:01;;;;;;;19.42;12.13;;;;;;;16.49;100.00;100719.34;5070730;28;20127;-55
2023/08/26 02:07:29;;;;;;;19.30;13.00;;;;;;;16.44;100.00;100727.72;5068984;28;20055;-55
2023/08/26 02:09:57;;;;;;;19.63;13.40;;;;;;;16.41;100.00;100722.69;5073572;28;20041;-55
2023/08/26 02:12:27;;;;;;;18.95;13.20;;;;;;;16.29;100.00;100724.66;5072931;28;20379;-54
2023/08/26 02:14:55;;;;;;;17.52;11.82;;;;;;;16.26;100.00;100730.25;5072671;28;20417;-54
2023/08/26 02:17:23;;;;;;;17.83;11.07;;;;;;;16.15;100.00;100717.94;5072727;28;20037;-54
2023/08/26 02:19:53;;;;;;;16.05;10.20;;;;;;;16.04;100.00;100726.88;5072706;28;20032;-56
2023/08/26 02:22:22;;;;;;;16.63;10.05;;;;;;;16.07;100.00;100727.59;5073073;28;20045;-56
2023/08/26 02:24:52;;;;;;;13.45;9.00;;;;;;;15.94;100.00;100728.69;5072941;28;20050;-55
2023/08/26 02:27:20;;;;;;;20.42;9.82;;;;;;;15.94;100.00;100731.34;5072857;28;20071;-55
2023/08/26 02:29:50;;;;;;;14.02;9.50;;;;;;;15.98;100.00;100734.53;5072686;28;20053;-56
2023/08/26 02:32:18;;;;;;;14.88;8.50;;;;;;;15.94;100.00;100739.31;5072806;28;20041;-54
2023/08/26 02:34:46;;;;;;;16.17;8.82;;;;;;;15.83;100.00;100732.31;5072691;28;20052;-54
2023/08/26 02:37:15;;;;;;;12.32;7.90;;;;;;;15.83;100.00;100728.81;5072858;28;20414;-55
2023/08/26 02:39:43;;;;;;;16.33;8.68;;;;;;;15.80;100.00;100729.94;5072707;28;20056;-56
2023/08/26 02:42:11;;;;;;;16.50;8.23;;;;;;;15.70;100.00;100735.16;5072621;28;20040;-55
2023/08/26 02:44:39;;;;;;;16.92;8.07;;;;;;;15.66;100.00;100728.44;5072653;28;20486;-53
2023/08/26 02:47:08;;;;;;;17.38;7.75;;;;;;;15.57;100.00;100724.00;5072357;28;20052;-55
2023/08/26 02:49:36;;;;;;;13.10;8.07;;;;;;;15.48;100.00;100733.56;5072377;28;20040;-54
2023/08/26 02:52:05;;;;;;;14.70;8.52;;;;;;;15.51;100.00;100733.28;5072394;28;20433;-54
2023/08/26 02:54:33;;;;;;;17.60;8.95;;;;;;;15.43;100.00;100737.59;5072438;28;20045;-54
2023/08/26 02:57:04;;;;;;;15.35;8.85;;;;;;;15.41;100.00;100747.50;5072395;28;20048;-55
2023/08/26 02:59:32;;;;;;;17.58;9.15;;;;;;;15.45;100.00;100746.28;5072233;28;20048;-56
2023/08/26 03:02:03;;;;;;;20.50;9.50;;;;;;;15.40;100.00;100751.13;5072425;28;20044;-53
2023/08/26 03:04:33;;;;;;;16.13;9.65;;;;;;;15.52;100.00;100753.53;5072541;28;20048;-56
2023/08/26 03:07:01;;;;;;;16.13;8.65;;;;;;;15.43;100.00;100753.50;5072198;28;20044;-53
2023/08/26 03:09:29;;;;;;;14.65;8.50;;;;;;;15.42;100.00;100757.97;5071528;28;20163;-54
2023/08/26 03:11:59;;;;;;;12.93;8.45;;;;;;;15.23;100.00;100756.09;5070366;28;20090;-55
2023/08/26 03:14:27;;;;;;;18.85;8.57;;;;;;;15.30;100.00;100759.88;5070592;28;20041;-55
2023/08/26 03:16:55;;;;;;;13.93;8.63;;;;;;;15.37;100.00;100760.19;5070190;28;20051;-55
2023/08/26 03:19:23;;;;;;;18.58;8.25;;;;;;;15.32;100.00;100763.22;5070751;28;20040;-56
2023/08/26 03:21:53;;;;;;;14.57;7.68;;;;;;;15.23;100.00;100758.72;5070186;28;20044;-52
2023/08/26 03:24:24;;;;;;;14.93;7.07;;;;;;;15.23;100.00;100771.13;5070047;28;20087;-56
2023/08/26 03:26:52;;;;;;;14.43;7.00;;;;;;;15.23;100.00;100768.47;5070587;28;20464;-55
2023/08/26 03:29:20;;;;;;;15.73;7.70;;;;;;;15.17;100.00;100770.69;5070180;28;20057;-55
2023/08/26 03:31:51;;;;;;;14.20;7.53;;;;;;;15.08;100.00;100773.28;5070573;28;20040;-54
2023/08/26 03:34:19;;;;;;;12.43;7.07;;;;;;;15.07;100.00;100771.63;5070343;28;20102;-54
2023/08/26 03:36:48;;;;;;;13.63;6.53;;;;;;;15.04;100.00;100770.88;5070033;28;20438;-55
2023/08/26 03:39:17;;;;;;;12.13;5.82;;;;;;;14.98;100.00;100767.91;5070198;28;20048;-55
2023/08/26 03:41:45;;;;;;;12.85;6.57;;;;;;;15.01;100.00;100772.94;5069950;28;20044;-54
2023/08/26 03:44:13;;;;;;;14.20;6.05;;;;;;;14.91;100.00;100772.91;5070524;28;20388;-55
2023/08/26 03:46:41;;;;;;;14.05;6.63;;;;;;;14.87;100.00;100777.63;5068684;28;20048;-55
2023/08/26 03:49:09;;;;;;;13.18;6.20;;;;;;;14.76;100.00;100780.31;5068596;28;20040;-55
2023/08/26 03:51:41;;;;;;;12.82;5.78;;;;;;;14.77;100.00;100768.78;5068803;28;20044;-54
2023/08/26 03:54:09;;;;;;;9.65;5.97;;;;;;;14.75;100.00;100768.09;5070422;28;20044;-55
2023/08/26 03:56:38;;;;;;;13.80;6.20;;;;;;;14.73;100.00;100782.41;5070294;28;20372;-59
2023/08/26 03:59:08;;;;;;;13.48;6.15;;;;;;;14.59;100.00;100771.13;5069945;28;20032;-56
2023/08/26 04:01:36;;;;;;;13.27;5.53;;;;;;;14.58;100.00;100780.03;5067840;28;20432;-55
2023/08/26 04:04:06;;;;;;;19.27;6.30;;;;;;;14.61;100.00;100779.75;5068541;28;20088;-54
2023/08/26 04:06:34;;;;;;;10.77;5.32;;;;;;;14.63;100.00;100774.38;5070075;28;20044;-55
2023/08/26 04:09:03;;;;;;;10.73;4.70;;;;;;;14.62;100.00;100778.81;5068935;28;20051;-55
2023/08/26 04:11:31;;;;;;;10.65;5.22;;;;;;;14.43;100.00;100779.50;5068662;28;20048;-55
2023/08/26 04:14:01;;;;;;;12.05;4.97;;;;;;;14.42;100.00;100775.16;5070022;28;20049;-53
2023/08/26 04:16:29;;;;;;;10.43;5.00;;;;;;;14.43;100.00;100781.31;5069831;28;20469;-55
2023/08/26 04:18:57;;;;;;;10.93;4.72;;;;;;;14.28;100.00;100778.13;5069129;28;20059;-56
2023/08/26 04:21:25;;;;;;;12.98;4.38;;;;;;;14.27;100.00;100776.44;5070266;28;20048;-54
2023/08/26 04:23:54;;;;;;;13.90;4.88;;;;;;;14.19;100.00;100780.56;5069593;28;20551;-53
2023/08/26 04:26:22;;;;;;;9.65;4.57;;;;;;;14.14;100.00;100788.00;5069368;28;20036;-54
2023/08/26 04:28:50;;;;;;;13.93;4.85;;;;;;;14.08;100.00;100787.66;5069152;28;20102;-53
2023/08/26 04:31:20;;;;;;;7.28;4.40;;;;;;;14.02;100.00;100783.72;5069561;28;20040;-53
2023/08/26 04:33:48;;;;;;;12.27;4.80;;;;;;;13.88;100.00;100798.03;5069710;28;20044;-54
2023/08/26 04:36:16;;;;;;;8.15;3.90;;;;;;;13.87;100.00;100796.38;5072022;28;20041;-54
2023/08/26 04:38:45;;;;;;;9.80;4.38;;;;;;;13.82;100.00;100804.63;5073400;28;20072;-54
2023/08/26 04:41:14;;;;;;;9.93;4.13;;;;;;;13.88;100.00;100805.13;5073278;28;20091;-54
2023/08/26 04:43:42;;;;;;;13.88;4.72;;;;;;;13.80;100.00;100809.22;5072360;28;20041;-55
2023/08/26 04:46:10;;;;;;;10.73;4.10;;;;;;;13.78;100.00;100813.78;5073504;28;20047;-55
2023/08/26 04:48:40;;;;;;;8.73;3.85;;;;;;;13.78;100.00;100818.22;5073240;28;20078;-52
2023/08/26 04:51:08;;;;;;;9.75;4.28;;;;;;;13.75;100.00;100816.66;5072925;28;20062;-53
2023/08/26 04:53:36;;;;;;;9.00;4.25;;;;;;;13.71;100.00;100817.03;5072740;28;20392;-51
2023/08/26 04:56:04;;;;;;;9.95;4.18;;;;;;;13.71;100.00;100815.22;5071066;28;20059;-55
2023/08/26 04:58:33;;;;;;;8.85;3.90;;;;;;;13.69;100.00;100814.53;5070949;28;20049;-54
2023/08/26 05:01:01;;;;;;;9.25;3.97;;;;;;;13.63;100.00;100820.28;5072610;28;20049;-54
2023/08/26 05:03:29;;;;;;;10.15;3.97;;;;;;;13.62;100.00;100823.88;5072798;28;20586;-54
2023/08/26 05:05:59;;;;;;;9.52;4.05;;;;;;;13.57;100.00;100826.06;5071679;28;20139;-51
2023/08/26 05:08:27;;;;;;;10.20;4.13;;;;;;;13.52;100.00;100824.63;5071348;28;20049;-54
2023/08/26 05:10:55;;;;;;;6.43;3.20;;;;;;;13.46;100.00;100837.47;5072602;28;20047;-55
2023/08/26 05:13:23;;;;;;;10.25;3.53;;;;;;;13.50;100.00;100836.25;5072765;28;20041;-53
2023/08/26 05:15:53;;;;;;;8.10;3.85;;;;;;;13.52;100.00;100840.47;5072771;28;20115;-54
2023/08/26 05:18:21;;;;;;;8.52;3.63;;;;;;;13.49;100.00;100838.03;5070856;28;20110;-56
2023/08/26 05:20:52;;;;;;;12.80;3.72;;;;;;;13.42;100.00;100841.31;5071429;28;20123;-54
2023/08/26 05:23:21;;;;;;;8.50;3.83;;;;;;;13.45;100.00;100838.41;5072715;28;20040;-55
2023/08/26 05:25:49;;;;;;;10.82;3.95;;;;;;;13.47;100.00;100842.63;5072262;28;20411;-53
2023/08/26 05:28:17;;;;;;;8.20;3.60;;;;;;;13.48;100.00;100843.44;5072795;28;20535;-54
2023/08/26 05:30:46;;;;;;;14.45;4.18;;;;;;;13.45;100.00;100839.25;5070854;28;20045;-51
2023/08/26 05:33:14;;;;;;;9.07;3.67;;;;;;;13.46;100.00;100845.38;5072815;28;20120;-53
2023/08/26 05:35:42;;;;;;;8.95;3.50;;;;;;;13.44;100.00;100842.88;5072364;28;20044;-54
2023/08/26 05:38:10;;;;;;;7.07;3.42;;;;;;;13.45;100.00;100843.69;5072114;28;20080;-51
2023/08/26 05:40:39;;;;;;;11.18;3.72;;;;;;;13.49;100.00;100837.22;5072351;28;20047;-54
2023/08/26 05:43:08;;;;;;;14.25;4.22;;;;;;;13.48;100.00;100841.66;5070462;28;20143;-55
2023/08/26 05:45:36;;;;;;;10.05;3.70;;;;;;;13.44;100.00;100842.88;5073439;28;20048;-49
2023/08/26 05:48:04;;;;;;;8.88;3.65;;;;;;;13.50;100.00;100846.81;5071430;28;20422;-51
2023/08/26 05:50:33;;;;;;;10.10;3.65;;;;;;;13.52;100.00;100839.59;5071245;28;20414;-53
2023/08/26 05:53:01;;;;;;;8.60;3.63;;;;;;;13.54;100.00;100850.91;5071775;28;20039;-53
2023/08/26 05:55:33;;;;;;;;;;;;;;;13.48;100.00;100843.44;5072699;28;20495;-53
2023/08/26 05:58:03;;;;;;;9.65;3.47;;;;;;;13.59;100.00;100840.81;5072220;28;19952;-54
2023/08/26 06:00:31;;;;;;;7.72;3.08;;;;;;;13.61;100.00;100827.50;5072002;28;20045;-55
2023/08/26 06:02:59;;;;;;;9.50;3.50;;;;;;;13.64;100.00;100836.00;5071526;28;20506;-54
2023/08/26 06:05:30;;;;;;;9.48;3.47;;;;;;;13.69;100.00;100838.31;5070972;28;20043;-55
2023/08/26 06:07:58;;;;;;;10.63;3.63;;;;;;;13.75;100.00;100834.34;5070612;28;20045;-55
2023/08/26 06:10:27;;;;;;;9.18;4.15;;;;;;;13.76;100.00;100836.84;5070821;28;20070;-54
2023/08/26 06:12:55;;;;;;;10.50;3.70;;;;;;;13.82;100.00;100846.94;5070995;28;20484;-54
2023/08/26 06:15:24;;;;;;;9.13;3.88;;;;;;;13.90;100.00;100845.50;5071818;28;20888;-52
2023/08/26 06:17:53;;;;;;;10.43;4.00;;;;;;;13.92;100.00;100839.13;5071042;28;20055;-55
2023/08/26 06:20:22;;;;;;;10.35;3.95;;;;;;;14.03;100.00;100841.75;5071071;28;20060;-54
2023/08/26 06:22:50;;;;;;;10.57;3.83;;;;;;;14.09;100.00;100842.25;5071547;28;20041;-53
2023/08/26 06:25:18;;;;;;;8.00;3.67;;;;;;;14.15;100.00;100839.09;5072358;28;20551;-65
2023/08/26 06:27:46;;;;;;;14.30;4.85;;;;;;;14.19;100.00;100836.09;5072186;28;20051;-65
2023/08/26 06:30:17;;;;;;;11.15;4.30;;;;;;;14.26;100.00;100836.44;5069794;28;20061;-65
2023/08/26 06:32:47;;;;;;;10.82;4.07;;;;;;;14.35;100.00;100834.84;5069289;28;20500;-64
2023/08/26 06:35:15;;;;;;;10.55;3.95;;;;;;;14.41;100.00;100841.44;5070817;28;20048;-65
2023/08/26 06:37:43;;;;;;;8.00;3.72;;;;;;;14.46;100.00;100849.84;5068716;28;20530;-65
2023/08/26 06:40:12;;;;;;;11.05;3.90;;;;;;;14.55;100.00;100854.38;5069472;28;20515;-64
2023/08/26 06:42:40;;;;;;;9.45;3.58;;;;;;;14.62;100.00;100847.63;5067505;28;20527;-62
2023/08/26 06:45:09;;;;;;;9.05;3.90;;;;;;;14.72;100.00;100855.66;5070584;28;20055;-62
2023/08/26 06:47:40;;;;;;;7.43;3.70;;;;;;;14.84;100.00;100854.66;5072261;28;20060;-63
2023/08/26 06:50:10;;;;;;;8.20;3.80;;;;;;;14.87;100.00;100854.41;5070297;28;20109;-61
2023/08/26 06:52:39;;;;;;;10.00;4.07;;;;;;;14.86;100.00;100846.56;5066413;28;20048;-62
2023/08/26 06:55:08;;;;;;;9.70;3.70;;;;;;;14.99;100.00;100857.81;5068020;28;20044;-61
2023/08/26 06:57:37;;;;;;;9.00;3.88;;;;;;;15.12;100.00;100862.09;5072325;28;20055;-61
2023/08/26 07:00:08;;;;;;;9.50;3.53;;;;;;;15.14;100.00;100865.47;5072125;28;20048;-56
2023/08/26 07:02:36;;;;;;;8.13;3.83;;;;;;;15.37;100.00;100868.81;5072164;28;20521;-55
2023/08/26 07:05:05;;;;;;;9.48;3.50;;;;;;;15.42;100.00;100873.72;5071486;28;20048;-55
2023/08/26 07:07:36;;;;;;;11.50;3.70;;;;;;;15.53;100.00;100871.00;5071411;28;20407;-54
2023/08/26 07:10:05;;;;;;;8.88;3.47;;;;;;;15.63;100.00;100868.41;5071743;28;20052;-55
2023/08/26 07:12:34;;;;;;;8.65;3.45;;;;;;;15.72;100.00;100876.38;5071892;28;20047;-55
2023/08/26 07:15:03;;;;;;;9.10;2.88;;;;;;;15.80;100.00;100866.94;5071706;28;20408;-56
2023/08/26 07:17:31;;;;;;;10.77;3.10;;;;;;;15.92;100.00;100865.06;5071832;28;20052;-60
2023/08/26 07:19:59;;;;;;;7.70;3.58;;;;;;;16.06;100.00;100854.09;5071715;28;20044;-61
2023/08/26 07:22:27;;;;;;;11.07;3.55;;;;;;;16.09;100.00;100858.25;5066889;28;20048;-60
2023/08/26 07:24:58;;;;;;;7.80;3.35;;;;;;;16.15;100.00;100860.38;5068937;28;20051;-56
2023/08/26 07:27:26;;;;;;;8.88;3.40;;;;;;;16.34;100.00;100860.41;5068258;28;20381;-55
2023/08/26 07:29:56;;;;;;;9.82;3.90;;;;;;;16.39;100.00;100860.84;5070595;28;20056;-56
2023/08/26 07:32:24;;;;;;;8.27;3.03;;;;;;;16.52;100.00;100859.72;5071492;28;20123;-56
2023/08/26 07:34:52;;;;;;;6.85;3.38;;;;;;;16.64;100.00;100855.97;5071428;28;20048;-56
2023/08/26 07:37:20;;;;;;;11.15;3.65;;;;;;;16.81;100.00;100853.59;5071682;28;20079;-56
2023/08/26 07:39:50;;;;;;;9.52;3.10;;;;;;;16.91;100.00;100857.13;5071494;28;20044;-55
2023/08/26 07:42:20;;;;;;;8.88;2.83;;;;;;;16.97;100.00;100858.38;5071629;28;20052;-56
2023/08/26 07:44:48;;;;;;;7.53;2.83;;;;;;;17.14;100.00;100852.34;5071911;28;20048;-56
2023/08/26 07:47:17;;;;;;;9.90;2.90;;;;;;;17.30;100.00;100862.38;5071456;28;20076;-56
2023/08/26 07:49:45;;;;;;;8.43;3.08;;;;;;;17.45;100.00;100853.94;5071425;28;20479;-56
2023/08/26 07:52:15;;;;;;;7.25;2.53;;;;;;;17.64;100.00;100864.53;5068330;28;20123;-55
2023/08/26 07:54:44;;;;;;;7.47;2.60;;;;;;;17.81;100.00;100862.06;5067780;28;20121;-54
2023/08/26 07:57:12;;;;;;;8.82;2.90;;;;;;;17.97;100.00;100880.94;5070513;28;20415;-56
2023/08/26 07:59:41;;;;;;;7.07;2.83;;;;;;;18.18;100.00;100875.34;5070927;28;20552;-60
2023/08/26 08:02:09;;;;;;;7.55;2.58;;;;;;;18.45;100.00;100889.63;5068001;28;20056;-60
2023/08/26 08:04:37;;;;;;;8.75;2.90;;;;;;;18.75;100.00;100895.56;5067254;28;20162;-60
2023/08/26 08:07:06;;;;;;;7.97;2.80;;;;;;;18.77;100.00;100898.09;5065780;28;20093;-60
2023/08/26 08:09:34;;;;;;;10.20;3.20;;;;;;;18.92;100.00;100893.91;5067442;28;20041;-60
2023/08/26 08:12:02;;;;;;;10.02;2.70;;;;;;;19.07;100.00;100905.72;5071289;28;20044;-60
2023/08/26 08:14:31;;;;;;;7.90;2.38;;;;;;;19.14;100.00;100905.09;5074574;28;20041;-60
2023/08/26 08:17:00;;;;;;;7.68;2.20;;;;;;;19.06;100.00;100900.50;5071560;28;20495;-60
2023/08/26 08:19:28;;;;;;;8.40;2.58;;;;;;;18.91;100.00;100910.91;5071806;28;20052;-56
2023/08/26 08:21:56;;;;;;;8.48;2.47;;;;;;;18.91;100.00;100906.41;5074026;28;20059;-56
2023/08/26 08:24:24;;;;;;;7.93;2.25;;;;;;;19.08;100.00;100907.38;5075162;28;20056;-56
2023/08/26 08:26:53;;;;;;;6.25;2.30;;;;;;;19.25;100.00;100910.16;5074449;28;20535;-60
2023/08/26 08:29:21;;;;;;;6.20;2.40;;;;;;;19.35;100.00;100907.41;5071757;28;20061;-56
2023/08/26 08:31:50;;;;;;;10.30;2.60;;;;;;;19.30;100.00;100915.03;5073093;28;20052;-60
2023/08/26 08:34:19;;;;;;;6.47;2.22;;;;;;;19.40;100.00;100919.28;5071568;28;20152;-60
2023/08/26 08:36:50;;;;;;;6.88;2.30;;;;;;;19.42;100.00;100909.28;5070622;28;20137;-59
2023/08/26 08:39:18;;;;;;;8.70;2.90;;;;;;;19.44;100.00;100911.78;5074405;28;20055;-60
2023/08/26 08:41:49;;;;;;;8.02;2.08;;;;;;;19.39;100.00;100908.78;5071284;28;20056;-59
2023/08/26 08:44:19;;;;;;;8.38;2.22;;;;;;;19.51;100.00;100912.88;5073193;28;20051;-60
2023/08/26 08:46:48;;;;;;;6.22;2.13;;;;;;;19.49;100.00;100906.84;5074849;28;20052;-59
2023/08/26 08:49:16;;;;;;;11.07;2.20;;;;;;;19.71;100.00;100908.13;5072123;28;20404;-60
2023/08/26 08:51:46;;;;;;;5.82;1.98;;;;;;;20.06;100.00;100905.50;5069487;28;20064;-60
2023/08/26 08:54:14;;;;;;;7.93;2.22;;;;;;;20.14;100.00;100904.69;5071158;28;20118;-60
2023/08/26 08:56:43;;;;;;;9.65;2.40;;;;;;;20.51;100.00;100903.47;5069643;28;20048;-60
2023/08/26 08:59:12;;;;;;;5.68;1.83;;;;;;;20.42;100.00;100903.47;5069905;28;20056;-60
2023/08/26 09:01:40;;;;;;;8.00;2.03;;;;;;;20.43;100.00;100897.09;5070715;28;20376;-60
2023/08/26 09:04:09;;;;;;;6.45;2.00;;;;;;;20.44;100.00;100904.13;5071150;28;20052;-60
2023/08/26 09:06:38;;;;;;;6.75;1.90;;;;;;;20.32;100.00;100902.75;5071415;28;20495;-60
2023/08/26 09:09:10;;;;;;;7.55;2.13;;;;;;;20.58;100.00;100907.16;5074133;28;20099;-60
2023/08/26 09:11:53;;;;;;;8.80;1.98;;;;;;;20.85;100.00;100900.72;5071699;28;20040;-60
2023/08/26 09:14:21;;;;;;;6.45;1.77;;;;;;;21.16;100.00;100904.53;5071033;28;20127;-60
2023/08/26 09:16:50;;;;;;;7.28;1.90;;;;;;;21.33;100.00;100908.06;5070645;28;20055;-56
2023/08/26 09:19:18;;;;;;;7.15;2.00;;;;;;;21.49;100.00;100901.81;5069722;28;20064;-56
2023/08/26 09:21:47;;;;;;;9.60;1.80;;;;;;;21.78;100.00;100903.97;5071404;28;20526;-57
2023/08/26 09:24:18;;;;;;;5.68;1.80;;;;;;;21.92;100.00;100907.75;5073627;28;20754;-57
2023/08/26 09:26:59;;;;;;;5.28;1.67;;;;;;;22.20;100.00;100905.47;5073916;28;20388;-56
2023/08/26 09:29:27;;;;;;;8.15;1.70;;;;;;;22.20;100.00;100918.03;5072648;28;20518;-56
2023/08/26 09:31:55;;;;;;;5.50;1.35;;;;;;;22.39;100.00;100903.41;5070286;28;20695;-55
2023/08/26 09:34:25;;;;;;;6.80;1.80;;;;;;;22.51;100.00;100904.66;5072118;28;20094;-59
2023/08/26 09:36:53;;;;;;;5.45;1.50;;;;;;;22.52;100.00;100905.50;5069834;28;20052;-59
2023/08/26 09:39:23;;;;;;;6.05;1.60;;;;;;;22.60;100.00;100905.44;5070367;28;20048;-59
2023/08/26 09:41:51;;;;;;;7.05;1.50;;;;;;;22.79;100.00;100907.63;5070325;28;20464;-59
2023/08/26 09:44:22;;;;;;;5.93;1.38;;;;;;;22.82;100.00;100901.09;5069297;28;20427;-60
2023/08/26 09:46:56;;;;;;;4.07;1.60;;;;;;;22.59;100.00;100898.41;5070311;28;20083;-59
2023/08/26 09:49:24;;;;;;;5.15;1.30;;;;;;;22.87;100.00;100903.25;5070358;28;20059;-59
2023/08/26 09:51:54;;;;;;;5.35;1.40;;;;;;;22.64;100.00;100912.09;5068937;28;20109;-59
2023/08/26 09:54:24;;;;;;;6.47;1.40;;;;;;;22.39;100.00;100909.59;5072907;28;20045;-59
2023/08/26 09:56:52;;;;;;;6.47;1.70;;;;;;;22.30;100.00;100905.25;5069684;28;20048;-60
2023/08/26 09:59:23;;;;;;;7.55;2.00;;;;;;;22.75;100.00;100905.50;5070093;28;20049;-56
2023/08/26 10:01:51;;;;;;;6.40;1.35;;;;;;;22.86;100.00;100905.06;5069792;28;20059;-56
2023/08/26 10:04:26;;;;;;;5.25;1.27;;;;;;;23.16;100.00;100909.72;5068835;28;20127;-55
2023/08/26 10:06:58;;;;;;;4.60;1.15;;;;;;;23.23;100.00;100902.63;5068834;28;20952;-56
2023/08/26 10:09:37;;;;;;;4.72;1.17;;;;;;;22.67;100.00;100910.91;5073386;28;20129;-56
2023/08/26 10:12:11;;;;;;;4.25;1.10;;;;;;;22.82;100.00;100913.66;5071471;28;20127;-56
2023/08/26 10:14:43;;;;;;;5.82;1.20;;;;;;;23.01;100.00;100917.72;5069335;28;20056;-57
2023/08/26 10:17:14;;;;;;;5.90;1.30;;;;;;;23.28;100.00;100919.84;5069336;28;20044;-57
2023/08/26 10:19:43;;;;;;;4.93;1.00;;;;;;;23.25;100.00;100914.03;5070799;28;20380;-55
2023/08/26 10:22:12;;;;;;;4.47;1.08;;;;;;;23.55;100.00;100919.44;5069868;28;20106;-56
2023/08/26 10:24:41;;;;;;;5.32;1.30;;;;;;;23.69;100.00;100918.59;5069448;28;20045;-57
2023/08/26 10:27:10;;;;;;;4.82;1.20;;;;;;;23.42;100.00;100917.34;5069607;28;20048;-54
2023/08/26 10:29:38;;;;;;;6.30;1.30;;;;;;;23.02;100.00;100905.97;5068454;28;20049;-56
2023/08/26 10:32:18;;;;;;;5.00;1.35;;;;;;;23.16;100.00;100901.69;5069401;28;20418;-56
2023/08/26 10:34:56;;;;;;;4.00;1.27;;;;;;;23.37;100.00;100904.50;5069202;28;20507;-56
2023/08/26 10:37:25;;;;;;;7.50;1.30;;;;;;;23.37;100.00;100895.59;5067989;28;20048;-55
2023/08/26 10:39:55;;;;;;;5.28;1.17;;;;;;;23.43;100.00;100901.06;5067604;28;20048;-56
2023/08/26 10:42:24;;;;;;;5.28;1.70;;;;;;;23.39;100.00;100905.13;5069293;28;20407;-56
2023/08/26 10:44:56;;;;;;;7.05;1.30;;;;;;;23.27;100.00;100910.13;5070142;28;20110;-56
2023/08/26 10:47:38;;;;;;;5.53;1.35;;;;;;;23.31;100.00;100904.41;5072393;28;20055;-56
2023/08/26 10:50:18;;;;;;;7.07;1.42;;;;;;;23.34;100.00;100901.34;5070119;28;20479;-55
2023/08/26 10:52:53;;;;;;;5.53;1.20;;;;;;;23.63;100.00;100903.25;5066287;28;20048;-55
2023/08/26 10:55:26;;;;;;;5.38;1.48;;;;;;;23.29;100.00;100899.22;5069723;28;20060;-56
2023/08/26 10:58:09;;;;;;;4.57;1.10;;;;;;;23.28;100.00;100903.72;5072194;28;20071;-56
2023/08/26 11:00:39;;;;;;;5.22;0.90;;;;;;;23.59;100.00;100899.25;5072080;28;20127;-56
2023/08/26 11:03:09;;;;;;;4.38;1.40;;;;;;;23.94;100.00;100902.22;5072133;28;20060;-56
2023/08/26 11:05:39;;;;;;;6.10;1.25;;;;;;;24.00;100.00;100895.28;5072019;28;20049;-55
2023/08/26 11:08:07;;;;;;;3.88;1.05;;;;;;;23.83;100.00;100900.81;5072095;28;20066;-56
2023/08/26 11:10:39;;;;;;;4.68;1.15;;;;;;;23.73;100.00;100894.91;5069631;28;20036;-56
2023/08/26 11:13:09;;;;;;;4.32;0.95;;;;;;;23.54;100.00;100885.56;5069059;28;20090;-56
2023/08/26 11:15:39;;;;;;;3.58;1.10;;;;;;;23.34;100.00;100880.72;5068217;28;20495;-57
2023/08/26 11:18:09;;;;;;;3.15;1.00;;;;;;;23.16;100.00;100878.38;5068610;28;20462;-56
2023/08/26 11:20:39;;;;;;;3.33;1.00;;;;;;;23.28;100.00;100882.28;5070086;28;20060;-56